KNGP/NGP METAR and TAF weather

Enter ICAO airport designator
Station Type Date Time Source
KNGP METAR 2022/01/27 21:56 UTC NOAA

KNGP 272156Z 05012KT 10SM BKN035 OVC080 15/11 A3016 RMK AO2 SLP211 T01500106


Station Type Date Time Source
KNGP Decoded METAR 2022/01/27 21:56 UTC NOAA

CORPUS CHRISTI NAVAL AIR STN, TX, United States (KNGP) 27-41N 097-17W
Jan 27, 2022 - 04:56 PM EST / 2022.01.27 2156 UTC
Wind: from the NE (050 degrees) at 14 MPH (12 KT):0
Visibility: 10 mile(s):0
Sky conditions: overcast
Temperature: 59.0 F (15.0 C)
Dew Point: 51.1 F (10.6 C)
Relative Humidity: 74%
Pressure (altimeter): 30.16 in. Hg (1021 hPa)
ob: KNGP 272156Z 05012KT 10SM BKN035 OVC080 15/11 A3016 RMK AO2 SLP211 T01500106
cycle: 22

Station Type Date Time Source
KNGP TAF 2022/01/27 23:53 UTC NOAA

TAF KNGP 2723/2823 05013KT 9999 BKN035 OVC080 QNH3014INS
TEMPO 2723/2803 9999 -RA
TEMPO 2803/2809 8000 -RA BR BKN020 OVC035
FM280900 02018G26KT 8000 -RA BR OVC015 611009 611906 510005 QNH3024INS
FM281200 02024G32KT 6000 SHRA BR VCTS OVC020CB 641009 641906 510008 QNH3031INS
TEMPO 2812/2815 2400 +SHRA BR
FM281500 01024G32KT 9999 VCSH FEW020 OVC035 641009 641906 510008 QNH3042INS
TEMPO 2815/2818 9000 -SHRA
FM282100 36014G20KT 9999 BKN100 OVC200 611009 611906 500000 QNH3041INS AUTOMATED SENSOR METWATCH 2805 TIL 2812 T16/2723Z T10/2812Z T14/2821Z FN20044

Example: see airport list